createdAt,value
2018-07-07T00:00:04.863Z,986.03
2018-07-07T00:01:14.411Z,986.07
2018-07-07T00:02:24.520Z,986.12
2018-07-07T00:03:34.330Z,986.1
2018-07-07T00:04:44.406Z,986.1
2018-07-07T00:05:54.482Z,986.1
2018-07-07T00:07:04.553Z,986.1
2018-07-07T00:08:14.137Z,986.11
2018-07-07T00:09:24.192Z,986.11
2018-07-07T00:10:34.251Z,986.12
2018-07-07T00:11:44.063Z,986.09
2018-07-07T00:12:53.881Z,986.09
2018-07-07T00:14:04.027Z,986.04
2018-07-07T00:15:13.840Z,986.04
2018-07-07T00:16:23.915Z,985.99
2018-07-07T00:17:33.973Z,986.01
2018-07-07T00:18:43.825Z,986.04
2018-07-07T00:19:53.940Z,986.05
2018-07-07T00:21:03.732Z,986.1
2018-07-07T00:22:13.533Z,986.16
2018-07-07T00:23:23.330Z,986.2
2018-07-07T00:24:33.117Z,986.16
2018-07-07T00:25:42.952Z,986.19
2018-07-07T00:26:52.766Z,986.19
2018-07-07T00:28:02.562Z,986.21
2018-07-07T00:29:12.365Z,986.22
2018-07-07T00:30:22.167Z,986.21
2018-07-07T00:31:32.303Z,986.21
2018-07-07T00:32:42.089Z,986.25
2018-07-07T00:33:51.603Z,986.29
2018-07-07T00:35:01.391Z,986.29
2018-07-07T00:36:10.914Z,986.28
2018-07-07T00:37:20.505Z,986.31
2018-07-07T00:38:30.309Z,986.34
2018-07-07T00:39:40.361Z,986.3
2018-07-07T00:40:50.159Z,986.28
2018-07-07T00:42:00.242Z,986.34
2018-07-07T00:43:10.083Z,986.31
2018-07-07T00:44:20.172Z,986.37
2018-07-07T00:45:29.975Z,986.43
2018-07-07T00:46:39.508Z,986.51
2018-07-07T00:47:49.285Z,986.52
2018-07-07T00:48:59.380Z,986.5
2018-07-07T00:50:08.921Z,986.53
2018-07-07T00:51:19.002Z,986.52
2018-07-07T00:52:28.787Z,986.57
2018-07-07T00:53:38.848Z,986.58
2018-07-07T00:54:48.701Z,986.57
2018-07-07T00:55:58.752Z,986.52
2018-07-07T00:57:08.547Z,986.58
2018-07-07T00:58:18.624Z,986.6
2018-07-07T00:59:28.158Z,986.6
2018-07-07T01:00:37.474Z,986.68
2018-07-07T01:01:47.549Z,986.67
2018-07-07T01:02:57.360Z,986.67
2018-07-07T01:04:06.899Z,986.67
2018-07-07T01:05:16.977Z,986.74
2018-07-07T01:06:26.829Z,986.65
2018-07-07T01:07:36.621Z,986.66
2018-07-07T01:08:46.686Z,986.68
2018-07-07T01:09:56.763Z,986.61
2018-07-07T01:11:06.556Z,986.67
2018-07-07T01:12:16.415Z,986.67
2018-07-07T01:13:26.484Z,986.65
2018-07-07T01:14:36.556Z,986.63
2018-07-07T01:15:46.643Z,986.65
2018-07-07T01:16:56.731Z,986.6
2018-07-07T01:18:06.888Z,986.63
2018-07-07T01:19:16.940Z,986.6
2018-07-07T01:20:26.738Z,986.62
2018-07-07T01:21:36.549Z,986.63
2018-07-07T01:22:46.612Z,986.67
2018-07-07T01:23:56.461Z,986.59
2018-07-07T01:25:06.275Z,986.56
2018-07-07T01:26:16.074Z,986.54
2018-07-07T01:27:25.851Z,986.61
2018-07-07T01:28:35.927Z,986.62
2018-07-07T01:29:46.032Z,986.63
2018-07-07T01:30:55.560Z,986.61
2018-07-07T01:32:05.083Z,986.67
2018-07-07T01:33:15.147Z,986.64
2018-07-07T01:34:24.932Z,986.7
2018-07-07T01:35:35.062Z,986.72
2018-07-07T01:36:45.140Z,986.8
2018-07-07T01:37:54.942Z,986.79
2018-07-07T01:39:04.203Z,986.82
2018-07-07T01:40:14.285Z,986.8
2018-07-07T01:41:23.878Z,986.8
2018-07-07T01:42:33.691Z,986.84
2018-07-07T01:43:43.486Z,986.86
2018-07-07T01:44:53.547Z,986.85
2018-07-07T01:46:03.092Z,986.87
2018-07-07T01:47:12.950Z,986.86
2018-07-07T01:48:22.759Z,986.86
2018-07-07T01:49:32.628Z,986.91
2018-07-07T01:50:42.167Z,986.91
2018-07-07T01:51:52.250Z,986.92
2018-07-07T01:53:02.177Z,986.95
2018-07-07T01:54:11.976Z,986.99
2018-07-07T01:55:22.062Z,987.03
2018-07-07T01:56:31.865Z,987.01
2018-07-07T01:57:41.660Z,987
2018-07-07T01:58:51.792Z,987.04
2018-07-07T02:00:01.852Z,987.09
2018-07-07T02:01:11.387Z,987.08
2018-07-07T02:02:20.926Z,987.09
2018-07-07T02:03:31.001Z,987.1
2018-07-07T02:04:41.130Z,987.12
2018-07-07T02:05:51.186Z,987.13
2018-07-07T02:07:00.968Z,987.12
2018-07-07T02:08:11.047Z,987.15
2018-07-07T02:09:21.111Z,987.16
2018-07-07T02:10:30.730Z,987.17
2018-07-07T02:11:41.057Z,987.19
2018-07-07T02:12:51.128Z,987.18
2018-07-07T02:14:00.656Z,987.23
2018-07-07T02:15:10.441Z,987.23
2018-07-07T02:16:20.558Z,987.23
2018-07-07T02:17:29.821Z,987.19
2018-07-07T02:18:39.639Z,987.22
2018-07-07T02:19:49.938Z,987.26
2018-07-07T02:20:59.462Z,987.29
2018-07-07T02:22:09.044Z,987.29
2018-07-07T02:23:18.308Z,987.3
2018-07-07T02:24:28.389Z,987.25
2018-07-07T02:25:38.467Z,987.25
2018-07-07T02:26:48.535Z,987.23
2018-07-07T02:27:58.650Z,987.25
2018-07-07T02:29:08.476Z,987.29
2018-07-07T02:30:18.537Z,987.3
2018-07-07T02:31:28.083Z,987.36
2018-07-07T02:32:38.166Z,987.33
2018-07-07T02:33:48.304Z,987.3
2018-07-07T02:34:58.094Z,987.36
2018-07-07T02:36:07.924Z,987.37
2018-07-07T02:37:17.717Z,987.4
2018-07-07T02:38:27.816Z,987.38
2018-07-07T02:39:37.943Z,987.39
2018-07-07T02:40:48.020Z,987.37
2018-07-07T02:41:58.101Z,987.41
2018-07-07T02:43:07.896Z,987.4
2018-07-07T02:44:17.432Z,987.47
2018-07-07T02:45:26.733Z,987.48
2018-07-07T02:46:36.804Z,987.47
2018-07-07T02:47:46.888Z,987.46
2018-07-07T02:48:56.682Z,987.46
2018-07-07T02:50:06.489Z,987.5
2018-07-07T02:51:16.614Z,987.49
2018-07-07T02:52:26.434Z,987.51
2018-07-07T02:53:36.495Z,987.54
2018-07-07T02:54:46.596Z,987.52
2018-07-07T02:55:56.670Z,987.54
2018-07-07T02:57:06.539Z,987.53
2018-07-07T02:58:16.078Z,987.54
2018-07-07T02:59:25.891Z,987.56
2018-07-07T03:04:51.201Z,987.59
2018-07-07T03:06:00.724Z,987.61
2018-07-07T03:07:10.247Z,987.66
2018-07-07T03:08:20.075Z,987.69
2018-07-07T03:09:30.222Z,987.69
2018-07-07T03:10:40.035Z,987.76
2018-07-07T03:11:50.115Z,987.76
2018-07-07T03:13:00.207Z,987.78
2018-07-07T03:14:10.273Z,987.79
2018-07-07T03:15:19.847Z,987.81
2018-07-07T03:16:29.139Z,987.83
2018-07-07T03:17:38.930Z,987.88
2018-07-07T03:18:48.751Z,987.9
2018-07-07T03:19:58.844Z,987.87
2018-07-07T03:21:08.435Z,987.91
2018-07-07T03:22:18.510Z,987.93
2018-07-07T03:23:27.773Z,987.93
2018-07-07T03:24:37.590Z,987.96
2018-07-07T03:25:47.401Z,987.98
2018-07-07T03:26:57.528Z,987.99
2018-07-07T03:28:07.329Z,988.01
2018-07-07T03:29:16.576Z,988.03
2018-07-07T03:30:26.357Z,988.01
2018-07-07T03:31:36.153Z,988
2018-07-07T03:32:45.998Z,988.05
2018-07-07T03:33:56.072Z,988.05
2018-07-07T03:35:05.861Z,988.07
2018-07-07T03:36:15.650Z,988.01
2018-07-07T03:37:25.720Z,988.04
2018-07-07T03:38:35.562Z,988.02
2018-07-07T03:39:45.649Z,988.03
2018-07-07T03:40:55.727Z,988.01
2018-07-07T03:42:05.585Z,988.01
2018-07-07T03:43:15.599Z,988.04
2018-07-07T03:44:24.899Z,988.04
2018-07-07T03:45:34.977Z,988.07
2018-07-07T03:46:45.103Z,988.03
2018-07-07T03:47:55.187Z,988.09
2018-07-07T03:49:05.284Z,988.13
2018-07-07T03:50:15.218Z,988.08
2018-07-07T03:51:24.748Z,988.11
2018-07-07T03:52:34.543Z,988.13
2018-07-07T03:53:44.354Z,988.15
2018-07-07T03:54:54.443Z,988.13
2018-07-07T03:56:04.289Z,988.14
2018-07-07T03:57:14.375Z,988.13
2018-07-07T03:58:23.899Z,988.13
2018-07-07T03:59:33.967Z,988.11
2018-07-07T04:00:43.510Z,988.16
2018-07-07T04:01:53.377Z,988.13
2018-07-07T04:03:03.442Z,988.13
2018-07-07T04:04:13.234Z,988.11
2018-07-07T04:05:23.305Z,988.16
2018-07-07T04:06:33.360Z,988.2
2018-07-07T04:07:43.479Z,988.23
2018-07-07T04:08:53.019Z,988.25
2018-07-07T04:10:02.272Z,988.2
2018-07-07T04:11:12.062Z,988.19
2018-07-07T04:12:21.864Z,988.18
2018-07-07T04:13:31.705Z,988.19
2018-07-07T04:14:41.772Z,988.19
2018-07-07T04:15:51.826Z,988.21
2018-07-07T04:17:01.899Z,988.24
2018-07-07T04:18:11.428Z,988.23
2018-07-07T04:19:21.558Z,988.22
2018-07-07T04:20:31.374Z,988.24
2018-07-07T04:21:41.435Z,988.21
2018-07-07T04:22:51.232Z,988.27
2018-07-07T04:24:01.326Z,988.26
2018-07-07T04:25:10.640Z,988.24
2018-07-07T04:26:20.179Z,988.29
2018-07-07T04:27:30.245Z,988.31
2018-07-07T04:28:40.036Z,988.32
2018-07-07T04:29:49.856Z,988.32
2018-07-07T04:30:59.981Z,988.36
2018-07-07T04:32:09.760Z,988.38
2018-07-07T04:33:19.838Z,988.33
2018-07-07T04:34:29.903Z,988.33
2018-07-07T04:35:39.987Z,988.33
2018-07-07T04:36:49.863Z,988.35
2018-07-07T04:37:59.659Z,988.36
2018-07-07T04:39:09.462Z,988.37
2018-07-07T04:40:19.504Z,988.43
2018-07-07T04:41:29.033Z,988.45
2018-07-07T04:42:39.147Z,988.47
2018-07-07T04:43:48.947Z,988.46
2018-07-07T04:44:58.746Z,988.4
2018-07-07T04:46:08.551Z,988.45
2018-07-07T04:47:18.085Z,988.46
2018-07-07T04:48:27.681Z,988.38
2018-07-07T04:49:37.745Z,988.45
2018-07-07T04:50:47.809Z,988.47
2018-07-07T04:51:57.875Z,988.44
2018-07-07T04:53:07.955Z,988.47
2018-07-07T04:54:17.814Z,988.5
2018-07-07T04:55:27.069Z,988.47
2018-07-07T04:56:36.884Z,988.48
2018-07-07T04:57:46.411Z,988.43
2018-07-07T04:58:56.484Z,988.51
2018-07-07T05:00:06.629Z,988.53
2018-07-07T05:01:16.161Z,988.57
2018-07-07T05:02:25.968Z,988.56
2018-07-07T05:03:35.495Z,988.56
2018-07-07T05:04:45.567Z,988.59
2018-07-07T05:05:55.406Z,988.59
2018-07-07T05:07:05.194Z,988.57
2018-07-07T05:08:15.284Z,988.62
2018-07-07T05:09:25.353Z,988.55
2018-07-07T05:10:35.144Z,988.54
2018-07-07T05:11:45.268Z,988.52
2018-07-07T05:12:55.345Z,988.54
2018-07-07T05:14:05.408Z,988.56
2018-07-07T05:15:15.505Z,988.53
2018-07-07T05:16:25.357Z,988.52
2018-07-07T05:17:35.220Z,988.46
2018-07-07T05:18:45.311Z,988.52
2018-07-07T05:19:55.131Z,988.52
2018-07-07T05:21:04.652Z,988.53
2018-07-07T05:22:14.453Z,988.51
2018-07-07T05:23:24.574Z,988.49
2018-07-07T05:24:34.362Z,988.54
2018-07-07T05:25:44.433Z,988.54
2018-07-07T05:26:54.503Z,988.55
2018-07-07T05:28:04.580Z,988.54
2018-07-07T05:29:14.411Z,988.59
2018-07-07T05:30:24.224Z,988.55
2018-07-07T05:31:34.293Z,988.57
2018-07-07T05:32:44.151Z,988.56
2018-07-07T05:33:53.970Z,988.58
2018-07-07T05:35:03.802Z,988.64
2018-07-07T05:36:13.876Z,988.62
2018-07-07T05:37:23.677Z,988.61
2018-07-07T05:38:33.486Z,988.63
2018-07-07T05:39:43.029Z,988.66
2018-07-07T05:40:53.135Z,988.62
2018-07-07T05:42:02.955Z,988.64
2018-07-07T05:43:13.023Z,988.69
2018-07-07T05:44:23.114Z,988.68
2018-07-07T05:45:32.904Z,988.74
2018-07-07T05:46:43.018Z,988.74
2018-07-07T05:47:52.819Z,988.75
2018-07-07T05:49:02.613Z,988.79
2018-07-07T05:50:12.673Z,988.78
2018-07-07T05:51:21.933Z,988.82
2018-07-07T05:52:32.052Z,988.82
2018-07-07T05:53:42.130Z,988.85
2018-07-07T05:54:52.196Z,988.87
2018-07-07T05:56:02.005Z,988.84
2018-07-07T05:57:11.807Z,988.85
2018-07-07T05:58:21.733Z,988.85
2018-07-07T05:59:31.521Z,988.88
2018-07-07T06:00:41.328Z,988.82
2018-07-07T06:01:51.132Z,988.87
2018-07-07T06:03:01.203Z,988.89
2018-07-07T06:04:11.066Z,988.87
2018-07-07T06:05:21.154Z,988.91
2018-07-07T06:06:31.209Z,988.94
2018-07-07T06:07:41.278Z,988.94
2018-07-07T06:08:51.364Z,988.94
2018-07-07T06:10:01.266Z,988.97
2018-07-07T06:11:11.339Z,988.97
2018-07-07T06:12:21.160Z,988.97
2018-07-07T06:13:30.687Z,988.98
2018-07-07T06:14:39.943Z,988.98
2018-07-07T06:15:50.109Z,988.96
2018-07-07T06:17:00.188Z,988.99
2018-07-07T06:18:09.716Z,989.04
2018-07-07T06:19:19.648Z,988.99
2018-07-07T06:20:29.451Z,989.04
2018-07-07T06:21:39.310Z,989.08
2018-07-07T06:22:49.388Z,989.05
2018-07-07T06:23:59.457Z,989.04
2018-07-07T06:25:09.297Z,989.08
2018-07-07T06:26:19.123Z,989.07
2018-07-07T06:27:29.188Z,989.09
2018-07-07T06:28:39.263Z,989.09
2018-07-07T06:29:49.318Z,989.1
2018-07-07T06:30:59.397Z,989.11
2018-07-07T06:32:08.924Z,989.11
2018-07-07T06:33:18.751Z,989.12
2018-07-07T06:34:28.290Z,989.14
2018-07-07T06:35:38.095Z,989.15
2018-07-07T06:36:58.163Z,989.2
2018-07-07T06:38:11.288Z,989.21
2018-07-07T06:39:21.145Z,989.24
2018-07-07T06:40:31.203Z,989.28
2018-07-07T06:41:41.259Z,989.21
2018-07-07T06:42:51.066Z,989.21
2018-07-07T06:44:01.205Z,989.2
2018-07-07T06:45:11.013Z,989.25
2018-07-07T06:46:21.072Z,989.29
2018-07-07T06:47:31.139Z,989.23
2018-07-07T06:48:40.935Z,989.26
2018-07-07T06:49:51.054Z,989.24
2018-07-07T06:51:01.111Z,989.23
2018-07-07T06:52:10.907Z,989.23
2018-07-07T06:53:20.700Z,989.26
2018-07-07T06:54:30.501Z,989.22
2018-07-07T06:55:40.091Z,989.26
2018-07-07T06:56:49.889Z,989.29
2018-07-07T06:57:59.958Z,989.29
2018-07-07T06:59:09.753Z,989.36
2018-07-07T07:00:19.830Z,989.35
2018-07-07T07:01:29.688Z,989.35
2018-07-07T07:02:39.504Z,989.35
2018-07-07T07:03:49.034Z,989.38
2018-07-07T07:04:59.123Z,989.38
2018-07-07T07:06:09.195Z,989.4
2018-07-07T07:07:18.763Z,989.38
2018-07-07T07:08:28.302Z,989.35
2018-07-07T07:09:38.094Z,989.41
2018-07-07T07:10:47.092Z,989.4
2018-07-07T07:11:57.174Z,989.41
2018-07-07T07:13:07.572Z,989.41
2018-07-07T07:14:17.382Z,989.46
2018-07-07T07:15:26.928Z,989.45
2018-07-07T07:16:36.726Z,989.44
2018-07-07T07:17:46.598Z,989.45
2018-07-07T07:18:56.727Z,989.41
2018-07-07T07:20:05.992Z,989.47
2018-07-07T07:21:15.788Z,989.45
2018-07-07T07:22:25.583Z,989.45
2018-07-07T07:23:35.647Z,989.42
2018-07-07T07:24:45.784Z,989.45
2018-07-07T07:25:55.643Z,989.42
2018-07-07T07:27:06.195Z,989.43
2018-07-07T07:28:16.008Z,989.45
2018-07-07T07:29:25.823Z,989.43
2018-07-07T07:30:35.676Z,989.42
2018-07-07T07:31:45.758Z,989.45
2018-07-07T07:32:55.614Z,989.41
2018-07-07T07:34:05.574Z,989.44
2018-07-07T07:35:15.370Z,989.44
2018-07-07T07:36:25.515Z,989.45
2018-07-07T07:37:35.603Z,989.46
2018-07-07T07:38:45.720Z,989.46
2018-07-07T07:39:55.510Z,989.46
2018-07-07T07:41:05.039Z,989.46
2018-07-07T07:42:15.159Z,989.5
2018-07-07T07:43:24.680Z,989.47
2018-07-07T07:44:34.499Z,989.43
2018-07-07T07:45:44.294Z,989.49
2018-07-07T07:46:54.087Z,989.46
2018-07-07T07:48:03.387Z,989.48
2018-07-07T07:49:13.453Z,989.46
2018-07-07T07:50:23.254Z,989.5
2018-07-07T07:51:33.077Z,989.46
2018-07-07T07:52:43.207Z,989.46
2018-07-07T07:53:53.484Z,989.47
2018-07-07T07:55:03.300Z,989.5
2018-07-07T07:56:13.369Z,989.51
2018-07-07T07:57:23.168Z,989.47
2018-07-07T07:58:33.257Z,989.51
2018-07-07T07:59:43.118Z,989.5
2018-07-07T08:00:52.635Z,989.45
2018-07-07T08:02:02.449Z,989.46
2018-07-07T08:03:12.537Z,989.4
2018-07-07T08:04:22.613Z,989.44
2018-07-07T08:05:32.475Z,989.4
2018-07-07T08:06:42.265Z,989.4
2018-07-07T08:07:52.340Z,989.46
2018-07-07T08:09:02.471Z,989.43
2018-07-07T08:10:12.556Z,989.42
2018-07-07T08:11:22.696Z,989.43
2018-07-07T08:12:32.290Z,989.46
2018-07-07T08:13:42.350Z,989.44
2018-07-07T08:14:52.140Z,989.44
2018-07-07T08:16:02.230Z,989.45
2018-07-07T08:17:12.098Z,989.53
2018-07-07T08:18:21.353Z,989.49
2018-07-07T08:19:31.159Z,989.48
2018-07-07T08:20:41.231Z,989.52
2018-07-07T08:21:51.304Z,989.47
2018-07-07T08:23:01.626Z,989.48
2018-07-07T08:24:11.208Z,989.46
2018-07-07T08:25:21.280Z,989.49
2018-07-07T08:26:31.080Z,989.49
2018-07-07T08:27:41.164Z,989.48
2018-07-07T08:28:51.279Z,989.44
2018-07-07T08:30:01.063Z,989.45
2018-07-07T08:31:11.129Z,989.46
2018-07-07T08:32:20.921Z,989.49
2018-07-07T08:33:30.993Z,989.51
2018-07-07T08:34:41.125Z,989.55
2018-07-07T08:35:51.230Z,989.51
2018-07-07T08:37:01.342Z,989.51
2018-07-07T08:38:11.129Z,989.5
2018-07-07T08:39:21.181Z,989.51
2018-07-07T08:40:31.311Z,989.46
2018-07-07T08:41:41.147Z,989.49
2018-07-07T08:42:50.788Z,989.51
2018-07-07T08:44:00.896Z,989.44
2018-07-07T08:45:10.694Z,989.46
2018-07-07T08:46:20.553Z,989.48
2018-07-07T08:47:30.356Z,989.52
2018-07-07T08:48:39.889Z,989.53
2018-07-07T08:49:49.985Z,989.48
2018-07-07T08:50:59.777Z,989.48
2018-07-07T08:52:09.900Z,989.44
2018-07-07T08:53:19.440Z,989.5
2018-07-07T08:54:29.246Z,989.49
2018-07-07T08:55:39.047Z,989.51
2018-07-07T08:56:49.136Z,989.48
2018-07-07T08:57:58.977Z,989.46
2018-07-07T08:59:08.522Z,989.42
2018-07-07T09:00:18.049Z,989.49
2018-07-07T09:01:27.839Z,989.45
2018-07-07T09:02:37.899Z,989.44
2018-07-07T09:03:48.021Z,989.5
2018-07-07T09:04:58.089Z,989.46
2018-07-07T09:06:07.605Z,989.45
2018-07-07T09:07:17.405Z,989.44
2018-07-07T09:08:27.196Z,989.4
2018-07-07T09:09:37.072Z,989.42
2018-07-07T09:10:46.566Z,989.42
2018-07-07T09:11:56.653Z,989.43
2018-07-07T09:13:06.724Z,989.41
2018-07-07T09:14:16.817Z,989.44
2018-07-07T09:15:27.011Z,989.43
2018-07-07T09:16:36.810Z,989.45
2018-07-07T09:17:46.618Z,989.45
2018-07-07T09:18:56.683Z,989.44
2018-07-07T09:20:06.756Z,989.46
2018-07-07T09:21:16.692Z,989.39
2018-07-07T09:22:27.029Z,989.46
2018-07-07T09:23:37.101Z,989.47
2018-07-07T09:24:47.166Z,989.5
2018-07-07T09:25:57.270Z,989.5
2018-07-07T09:27:06.862Z,989.42
2018-07-07T09:28:16.681Z,989.44
2018-07-07T09:29:26.754Z,989.41
2018-07-07T09:30:36.819Z,989.49
2018-07-07T09:31:46.899Z,989.47
2018-07-07T09:32:56.485Z,989.48
2018-07-07T09:34:06.565Z,989.45
2018-07-07T09:35:16.386Z,989.48
2018-07-07T09:36:26.477Z,989.48
2018-07-07T09:37:36.270Z,989.47
2018-07-07T09:38:46.417Z,989.49
2018-07-07T09:39:56.484Z,989.52
2018-07-07T09:41:06.280Z,989.47
2018-07-07T09:42:15.548Z,989.43
2018-07-07T09:43:25.384Z,989.45
2018-07-07T09:44:35.497Z,989.46
2018-07-07T09:45:45.565Z,989.47
2018-07-07T09:46:55.659Z,989.43
2018-07-07T09:48:05.742Z,989.45
2018-07-07T09:49:15.563Z,989.45
2018-07-07T09:50:25.414Z,989.47
2018-07-07T09:51:35.482Z,989.45
2018-07-07T09:52:45.294Z,989.44
2018-07-07T09:53:55.102Z,989.41
2018-07-07T09:55:05.161Z,989.44
2018-07-07T09:56:15.035Z,989.42
2018-07-07T09:57:25.452Z,989.4
2018-07-07T09:58:35.268Z,989.37
2018-07-07T09:59:44.817Z,989.36
2018-07-07T10:00:54.874Z,989.41
2018-07-07T10:02:04.745Z,989.38
2018-07-07T10:03:14.566Z,989.4
2018-07-07T10:04:24.358Z,989.41
2018-07-07T10:05:33.908Z,989.41
2018-07-07T10:06:43.453Z,989.39
2018-07-07T10:07:53.568Z,989.39
2018-07-07T10:09:03.096Z,989.41
2018-07-07T10:10:12.643Z,989.43
2018-07-07T10:11:22.713Z,989.37
2018-07-07T10:12:32.510Z,989.43
2018-07-07T10:13:42.657Z,989.45
2018-07-07T10:14:52.738Z,989.39
2018-07-07T10:16:02.541Z,989.4
2018-07-07T10:17:11.800Z,989.35
2018-07-07T10:18:21.339Z,989.42
2018-07-07T10:19:30.935Z,989.36
2018-07-07T10:20:41.070Z,989.39
2018-07-07T10:21:51.041Z,989.38
2018-07-07T10:23:01.147Z,989.42
2018-07-07T10:24:10.685Z,989.38
2018-07-07T10:25:20.005Z,989.38
2018-07-07T10:26:29.869Z,989.37
2018-07-07T10:27:39.133Z,989.38
2018-07-07T10:28:48.937Z,989.4
2018-07-07T10:29:58.754Z,989.43
2018-07-07T10:31:08.628Z,989.41
2018-07-07T10:32:18.683Z,989.41
2018-07-07T10:33:28.764Z,989.39
2018-07-07T10:34:38.844Z,989.43
2018-07-07T10:35:48.636Z,989.42
2018-07-07T10:36:58.210Z,989.44
2018-07-07T10:38:08.079Z,989.46
2018-07-07T10:39:18.462Z,989.45
2018-07-07T10:40:28.523Z,989.5
2018-07-07T10:41:38.602Z,989.45
2018-07-07T10:42:48.717Z,989.5
2018-07-07T10:43:58.524Z,989.48
2018-07-07T10:45:08.057Z,989.43
2018-07-07T10:46:17.580Z,989.44
2018-07-07T10:47:27.442Z,989.42
2018-07-07T10:48:37.561Z,989.42
2018-07-07T10:49:47.387Z,989.37
2018-07-07T10:50:57.194Z,989.4
2018-07-07T10:52:07.001Z,989.41
2018-07-07T10:53:16.819Z,989.42
2018-07-07T10:54:26.671Z,989.35
2018-07-07T10:55:36.888Z,989.38
2018-07-07T10:56:46.980Z,989.36
2018-07-07T10:57:56.775Z,989.36
2018-07-07T10:59:06.863Z,989.42
2018-07-07T11:00:16.711Z,989.43
2018-07-07T11:01:26.245Z,989.45
2018-07-07T11:02:36.066Z,989.47
2018-07-07T11:03:46.264Z,989.5
2018-07-07T11:04:56.085Z,989.46
2018-07-07T11:06:06.221Z,989.5
2018-07-07T11:07:16.034Z,989.49
2018-07-07T11:08:26.104Z,989.5
2018-07-07T11:09:35.641Z,989.5
2018-07-07T11:10:45.446Z,989.45
2018-07-07T11:11:55.206Z,989.43
2018-07-07T11:13:05.242Z,989.44
2018-07-07T11:14:15.331Z,989.46
2018-07-07T11:15:25.425Z,989.47
2018-07-07T11:16:35.499Z,989.54
2018-07-07T11:17:45.367Z,989.49
2018-07-07T11:18:55.155Z,989.46
2018-07-07T11:20:05.369Z,989.46
2018-07-07T11:21:14.937Z,989.55
2018-07-07T11:22:24.728Z,989.52
2018-07-07T11:23:34.649Z,989.53
2018-07-07T11:24:44.204Z,989.53
2018-07-07T11:25:54.326Z,989.54
2018-07-07T11:27:03.882Z,989.57
2018-07-07T11:28:13.144Z,989.48
2018-07-07T11:29:23.007Z,989.53
2018-07-07T11:30:33.081Z,989.53
2018-07-07T11:31:43.166Z,989.56
2018-07-07T11:32:53.296Z,989.54
2018-07-07T11:34:03.384Z,989.55
2018-07-07T11:35:12.967Z,989.58
2018-07-07T11:36:22.801Z,989.54
2018-07-07T11:37:33.151Z,989.59
2018-07-07T11:38:42.961Z,989.58
2018-07-07T11:39:53.033Z,989.59
2018-07-07T11:41:03.155Z,989.6
2018-07-07T11:42:13.302Z,989.52
2018-07-07T11:43:23.733Z,989.64
2018-07-07T11:44:33.813Z,989.6
2018-07-07T11:45:43.882Z,989.64
2018-07-07T11:46:53.477Z,989.65
2018-07-07T11:48:03.286Z,989.67
2018-07-07T11:49:13.357Z,989.66
2018-07-07T11:50:23.254Z,989.7
2018-07-07T11:51:33.746Z,989.71
2018-07-07T11:52:43.608Z,989.69
2018-07-07T11:53:53.694Z,989.71
2018-07-07T11:55:03.502Z,989.73
2018-07-07T11:56:13.585Z,989.71
2018-07-07T11:57:23.660Z,989.69
2018-07-07T11:58:33.528Z,989.77
2018-07-07T11:59:43.611Z,989.75
2018-07-07T12:00:53.417Z,989.76
2018-07-07T12:02:03.324Z,989.73
2018-07-07T12:03:13.435Z,989.73
2018-07-07T12:04:23.575Z,989.64
2018-07-07T12:05:33.807Z,989.7
2018-07-07T12:06:43.339Z,989.65
2018-07-07T12:08:00.830Z,989.7
2018-07-07T12:09:24.044Z,989.69
2018-07-07T12:10:33.304Z,989.74
2018-07-07T12:11:43.184Z,989.7
2018-07-07T12:12:52.939Z,989.71
2018-07-07T12:14:03.015Z,989.69
2018-07-07T12:15:13.166Z,989.71
2018-07-07T12:16:22.969Z,989.81
2018-07-07T12:17:32.534Z,989.77
2018-07-07T12:18:42.421Z,989.8
2018-07-07T12:19:52.256Z,989.86
2018-07-07T12:21:02.119Z,989.88
2018-07-07T12:22:11.393Z,989.7
2018-07-07T12:23:21.207Z,989.72
2018-07-07T12:24:31.291Z,989.7
2018-07-07T12:25:41.384Z,989.76
2018-07-07T12:26:50.954Z,989.71
2018-07-07T12:28:01.038Z,989.67
2018-07-07T12:29:11.176Z,989.71
2018-07-07T12:30:20.981Z,989.7
2018-07-07T12:31:31.116Z,989.76
2018-07-07T12:32:41.249Z,989.69
2018-07-07T12:33:51.072Z,989.69
2018-07-07T12:35:01.162Z,989.81
2018-07-07T12:36:10.695Z,989.75
2018-07-07T12:37:20.493Z,989.67
2018-07-07T12:38:30.353Z,989.71
2018-07-07T12:39:40.418Z,989.85
2018-07-07T12:40:50.322Z,989.84
2018-07-07T12:42:00.379Z,989.72
2018-07-07T12:43:10.193Z,989.76
2018-07-07T12:44:20.056Z,989.78
2018-07-07T12:45:29.612Z,989.81
2018-07-07T12:46:39.712Z,989.95
2018-07-07T12:47:49.795Z,989.7
2018-07-07T12:48:59.615Z,989.71
2018-07-07T12:50:09.221Z,989.9
2018-07-07T12:51:18.789Z,989.84
2018-07-07T12:52:28.343Z,989.84
2018-07-07T12:53:38.167Z,989.81
2018-07-07T12:54:48.238Z,989.72
2018-07-07T12:55:58.112Z,989.84
2018-07-07T12:57:07.923Z,989.74
2018-07-07T12:58:18.018Z,989.74
2018-07-07T12:59:27.843Z,989.75
2018-07-07T13:00:37.929Z,989.73
2018-07-07T13:01:47.791Z,989.76
2018-07-07T13:02:57.342Z,989.81
2018-07-07T13:04:07.176Z,989.67
2018-07-07T13:05:16.987Z,989.65
2018-07-07T13:06:26.543Z,989.72
2018-07-07T13:07:36.669Z,989.8
2018-07-07T13:08:46.505Z,989.7
2018-07-07T13:09:56.588Z,989.72
2018-07-07T13:11:06.688Z,989.74
2018-07-07T13:12:16.789Z,989.81
2018-07-07T13:13:26.382Z,989.78
2018-07-07T13:14:36.461Z,989.77
2018-07-07T13:15:46.275Z,989.7
2018-07-07T13:16:56.354Z,989.77
2018-07-07T13:18:06.188Z,989.71
2018-07-07T13:19:16.039Z,989.78
2018-07-07T13:20:25.599Z,989.84
2018-07-07T13:21:35.692Z,989.79
2018-07-07T13:22:45.517Z,989.78
2018-07-07T13:23:55.049Z,989.84
2018-07-07T13:25:04.925Z,989.81
2018-07-07T13:26:15.088Z,989.88
2018-07-07T13:27:25.057Z,989.86
2018-07-07T13:28:34.877Z,989.95
2018-07-07T13:29:44.969Z,989.91
2018-07-07T13:30:54.301Z,989.92
2018-07-07T13:32:04.117Z,990.11
2018-07-07T13:33:14.306Z,990.09
2018-07-07T13:34:24.498Z,990.14
2018-07-07T13:35:34.591Z,990.28
2018-07-07T13:36:44.728Z,990.27
2018-07-07T13:37:54.550Z,990.36
2018-07-07T13:39:04.642Z,990.36
2018-07-07T13:40:14.194Z,990.25
2018-07-07T13:41:23.479Z,990.28
2018-07-07T13:42:33.362Z,990.25
2018-07-07T13:43:43.462Z,990.34
2018-07-07T13:44:53.544Z,990.29
2018-07-07T13:46:02.817Z,990.21
2018-07-07T13:47:12.624Z,990.24
2018-07-07T13:48:22.494Z,990.23
2018-07-07T13:49:32.315Z,990.24
2018-07-07T13:50:42.396Z,990.21
2018-07-07T13:51:51.960Z,990.11
2018-07-07T13:53:01.783Z,990.13
2018-07-07T13:54:11.659Z,990.13
2018-07-07T13:55:21.742Z,990.2
2018-07-07T13:56:31.836Z,990.22
2018-07-07T13:57:41.670Z,990.3
2018-07-07T13:58:51.215Z,990.28
2018-07-07T14:00:01.372Z,990.33
2018-07-07T14:01:11.470Z,990.31
2018-07-07T14:02:21.078Z,990.29
2018-07-07T14:03:31.137Z,990.32
2018-07-07T14:04:40.941Z,990.39
2018-07-07T14:05:50.822Z,990.32
2018-07-07T14:07:00.643Z,990.29
2018-07-07T14:08:10.477Z,990.32
2018-07-07T14:09:20.575Z,990.35
2018-07-07T14:10:30.866Z,990.35
2018-07-07T14:11:40.739Z,990.37
2018-07-07T14:12:50.551Z,990.32
2018-07-07T14:14:00.673Z,990.32
2018-07-07T14:15:10.761Z,990.3
2018-07-07T14:16:20.585Z,990.29
2018-07-07T14:17:30.799Z,990.24
2018-07-07T14:18:41.269Z,990.24
2018-07-07T14:19:51.081Z,990.27
2018-07-07T14:21:00.905Z,990.25
2018-07-07T14:22:10.461Z,990.31
2018-07-07T14:23:20.353Z,990.42
2018-07-07T14:24:30.594Z,990.65
2018-07-07T14:25:40.152Z,990.72
2018-07-07T14:26:49.693Z,990.75
2018-07-07T14:27:59.783Z,990.71
2018-07-07T14:29:09.428Z,990.51
2018-07-07T14:30:19.244Z,990.48
2018-07-07T14:31:29.068Z,990.69
2018-07-07T14:32:38.607Z,991.04
2018-07-07T14:33:48.702Z,991.33
2018-07-07T14:34:58.818Z,991.57
2018-07-07T14:36:08.927Z,991.67
2018-07-07T14:37:18.763Z,991.78
2018-07-07T14:38:28.971Z,991.71
2018-07-07T14:39:38.833Z,991.68